Aromas, California
Current Conditions -  °F | °C
As of 4:53 AM on Thursday 18 Dec 2014 (Local Time) from KWVI Reporting Station
Overcast Overcast  
Wind Chill: 52°   Ceiling: 2000
Heat Index: 52°   Visibility: 10mi
Dew Point: 50°   Wind: 3mph
Humidity: 93%   Direction: 40°NE
Pressure: 30.1"   Gusts: NA
Location:  36.88°N, 121.64°W
Report Text: KWVI 181253Z AUTO 04003KT 10SM OVC020 11/10 A3010 RMK AO2 RAB09E35 SLP193 P0000 T01110100
Loading
Personal Weather Stations






























Interactive Weather Map New forecast layout! Learn more

10-Day Weather Forecast

Advertisements
Track Severe Weather on mobile